Ana Sayfa
METAR-TAF:

METAR-TAF

Havaalanları :

Pekanbaru, Endonezya

Enlem: 00-28N, Boylam: 101-27E, yükseklik: 31 m

Güncel hava durumu gözlemi

Rapor saat 14:00 UTC de 1 saat ve 58 dakika önce yapıldı.
Sakin rüzgar
Sıcaklık 28°C
Nem 79%
Basınç 1009 hPa
Görüş mesafesi: 6000 m
1500 ft yükseklikte az bulutlu

METAR: WIBB 211400Z 00000KT 6000 FEW015 28/24 Q1009 NOSIG

Saat: 22:58 (15:58 UTC)


TAF: eksik

4.000'den fazla havaalanı için hava durumu gözlemleri ve tahminleri (METAR ve TAF raporları).

Kullanılabilir istasyonlar harita üzerinde sarı ve kırmızı noktalarla gösterilir.

İstasyonun adını görmek için fareyi noktanın üzerinde gezdirin.

Sonrasında hava gözlem ve tahminlerini görmek için tıklayın.

Haritayı değiştirmek için: yaklaştırmak için siyah artı işaretli yeşil düğmeye ve uzaklaştırmak için de eksi işaretli düğmeye hızla tıklayın; bitişik haritalar için yeşil okları kullanın.


METAR-TAF: